sensor_id;sensor_type;location;lat;lon;timestamp;P1;durP1;ratioP1;P2;durP2;ratioP2
12356;SDS011;6243;51.244;6.774;2023-12-20T00:00:32;5.00;;;2.80;;
12356;SDS011;6243;51.244;6.774;2023-12-20T00:02:58;4.10;;;2.80;;
12356;SDS011;6243;51.244;6.774;2023-12-20T00:05:24;4.60;;;3.20;;
12356;SDS011;6243;51.244;6.774;2023-12-20T00:07:49;5.10;;;3.10;;
12356;SDS011;6243;51.244;6.774;2023-12-20T00:10:16;3.80;;;2.47;;
12356;SDS011;6243;51.244;6.774;2023-12-20T00:12:42;4.57;;;2.97;;
12356;SDS011;6243;51.244;6.774;2023-12-20T00:15:07;6.00;;;2.93;;
12356;SDS011;6243;51.244;6.774;2023-12-20T00:17:33;4.53;;;2.60;;
12356;SDS011;6243;51.244;6.774;2023-12-20T00:19:59;4.47;;;2.43;;
12356;SDS011;6243;51.244;6.774;2023-12-20T00:22:25;4.73;;;2.60;;
12356;SDS011;6243;51.244;6.774;2023-12-20T00:24:50;5.07;;;3.07;;
12356;SDS011;6243;51.244;6.774;2023-12-20T00:27:18;4.47;;;3.50;;
12356;SDS011;6243;51.244;6.774;2023-12-20T00:29:43;6.00;;;3.60;;
12356;SDS011;6243;51.244;6.774;2023-12-20T00:32:09;4.37;;;3.33;;
12356;SDS011;6243;51.244;6.774;2023-12-20T00:34:34;6.63;;;3.80;;
12356;SDS011;6243;51.244;6.774;2023-12-20T00:37:00;4.23;;;3.40;;
12356;SDS011;6243;51.244;6.774;2023-12-20T00:39:26;5.90;;;3.67;;
12356;SDS011;6243;51.244;6.774;2023-12-20T00:41:52;5.57;;;4.47;;
12356;SDS011;6243;51.244;6.774;2023-12-20T00:44:19;5.57;;;3.43;;
12356;SDS011;6243;51.244;6.774;2023-12-20T00:46:44;4.90;;;3.63;;
12356;SDS011;6243;51.244;6.774;2023-12-20T00:49:10;4.93;;;4.00;;
12356;SDS011;6243;51.244;6.774;2023-12-20T00:51:36;6.60;;;4.57;;
12356;SDS011;6243;51.244;6.774;2023-12-20T00:54:02;7.60;;;4.50;;
12356;SDS011;6243;51.244;6.774;2023-12-20T00:56:27;6.10;;;4.40;;
12356;SDS011;6243;51.244;6.774;2023-12-20T00:58:53;9.27;;;5.07;;
12356;SDS011;6243;51.244;6.774;2023-12-20T01:01:20;10.37;;;5.73;;
12356;SDS011;6243;51.244;6.774;2023-12-20T01:03:47;8.60;;;5.50;;
12356;SDS011;6243;51.244;6.774;2023-12-20T01:06:13;8.10;;;5.80;;
12356;SDS011;6243;51.244;6.774;2023-12-20T01:08:39;8.50;;;6.60;;
12356;SDS011;6243;51.244;6.774;2023-12-20T01:11:05;10.70;;;7.50;;
12356;SDS011;6243;51.244;6.774;2023-12-20T01:13:30;8.80;;;7.40;;
12356;SDS011;6243;51.244;6.774;2023-12-20T01:15:56;12.03;;;8.30;;
12356;SDS011;6243;51.244;6.774;2023-12-20T01:18:23;14.83;;;8.90;;
12356;SDS011;6243;51.244;6.774;2023-12-20T01:20:49;10.37;;;8.60;;
12356;SDS011;6243;51.244;6.774;2023-12-20T01:23:15;14.20;;;9.33;;
12356;SDS011;6243;51.244;6.774;2023-12-20T01:25:40;12.40;;;9.40;;
12356;SDS011;6243;51.244;6.774;2023-12-20T01:28:06;14.30;;;9.57;;
12356;SDS011;6243;51.244;6.774;2023-12-20T01:30:31;13.70;;;9.37;;
12356;SDS011;6243;51.244;6.774;2023-12-20T01:32:57;11.77;;;9.77;;
12356;SDS011;6243;51.244;6.774;2023-12-20T01:35:25;13.67;;;9.53;;
12356;SDS011;6243;51.244;6.774;2023-12-20T01:37:50;11.83;;;8.40;;
12356;SDS011;6243;51.244;6.774;2023-12-20T01:40:16;12.63;;;8.97;;
12356;SDS011;6243;51.244;6.774;2023-12-20T01:42:41;10.17;;;8.30;;
12356;SDS011;6243;51.244;6.774;2023-12-20T01:45:07;12.17;;;7.90;;
12356;SDS011;6243;51.244;6.774;2023-12-20T01:47:33;13.73;;;8.27;;
12356;SDS011;6243;51.244;6.774;2023-12-20T01:50:00;12.97;;;8.40;;
12356;SDS011;6243;51.244;6.774;2023-12-20T01:52:27;10.40;;;7.73;;
12356;SDS011;6243;51.244;6.774;2023-12-20T01:54:53;12.97;;;7.20;;
12356;SDS011;6243;51.244;6.774;2023-12-20T01:57:19;10.40;;;7.30;;
12356;SDS011;6243;51.244;6.774;2023-12-20T01:59:44;12.47;;;8.10;;
12356;SDS011;6243;51.244;6.774;2023-12-20T02:02:10;10.67;;;7.50;;
12356;SDS011;6243;51.244;6.774;2023-12-20T02:04:36;8.80;;;7.03;;
12356;SDS011;6243;51.244;6.774;2023-12-20T02:07:02;9.83;;;7.63;;
12356;SDS011;6243;51.244;6.774;2023-12-20T02:09:30;11.40;;;6.77;;
12356;SDS011;6243;51.244;6.774;2023-12-20T02:11:56;9.83;;;6.50;;
12356;SDS011;6243;51.244;6.774;2023-12-20T02:14:22;13.57;;;6.43;;
12356;SDS011;6243;51.244;6.774;2023-12-20T02:16:48;10.67;;;6.17;;
12356;SDS011;6243;51.244;6.774;2023-12-20T02:19:14;11.23;;;6.40;;
12356;SDS011;6243;51.244;6.774;2023-12-20T02:21:41;10.50;;;6.40;;
12356;SDS011;6243;51.244;6.774;2023-12-20T02:24:06;10.43;;;6.23;;
12356;SDS011;6243;51.244;6.774;2023-12-20T02:26:32;13.40;;;6.07;;
12356;SDS011;6243;51.244;6.774;2023-12-20T02:28:58;10.33;;;5.53;;
12356;SDS011;6243;51.244;6.774;2023-12-20T02:31:25;9.47;;;5.80;;
12356;SDS011;6243;51.244;6.774;2023-12-20T02:33:51;11.47;;;5.30;;
12356;SDS011;6243;51.244;6.774;2023-12-20T02:36:17;11.43;;;5.73;;
12356;SDS011;6243;51.244;6.774;2023-12-20T02:38:44;10.53;;;4.77;;
12356;SDS011;6243;51.244;6.774;2023-12-20T02:41:10;12.87;;;5.33;;
12356;SDS011;6243;51.244;6.774;2023-12-20T02:43:36;8.80;;;4.47;;
12356;SDS011;6243;51.244;6.774;2023-12-20T02:46:09;11.40;;;4.63;;
12356;SDS011;6243;51.244;6.774;2023-12-20T02:48:36;13.63;;;4.43;;
12356;SDS011;6243;51.244;6.774;2023-12-20T02:51:02;10.53;;;4.43;;
12356;SDS011;6243;51.244;6.774;2023-12-20T02:53:28;9.37;;;3.47;;
12356;SDS011;6243;51.244;6.774;2023-12-20T02:55:55;9.67;;;3.80;;
12356;SDS011;6243;51.244;6.774;2023-12-20T02:58:21;7.77;;;3.47;;
12356;SDS011;6243;51.244;6.774;2023-12-20T03:00:47;10.93;;;2.97;;
12356;SDS011;6243;51.244;6.774;2023-12-20T03:03:13;11.03;;;3.93;;
12356;SDS011;6243;51.244;6.774;2023-12-20T03:05:39;8.53;;;3.17;;
12356;SDS011;6243;51.244;6.774;2023-12-20T03:08:06;6.57;;;2.70;;
12356;SDS011;6243;51.244;6.774;2023-12-20T03:10:32;8.93;;;2.90;;
12356;SDS011;6243;51.244;6.774;2023-12-20T03:12:59;13.70;;;3.13;;
12356;SDS011;6243;51.244;6.774;2023-12-20T03:15:25;6.73;;;3.13;;
12356;SDS011;6243;51.244;6.774;2023-12-20T03:17:51;8.23;;;2.63;;
12356;SDS011;6243;51.244;6.774;2023-12-20T03:20:17;10.10;;;2.90;;
12356;SDS011;6243;51.244;6.774;2023-12-20T03:22:43;7.83;;;3.03;;
12356;SDS011;6243;51.244;6.774;2023-12-20T03:25:09;9.57;;;3.47;;
12356;SDS011;6243;51.244;6.774;2023-12-20T03:27:36;7.00;;;2.67;;
12356;SDS011;6243;51.244;6.774;2023-12-20T03:30:04;11.23;;;3.40;;
12356;SDS011;6243;51.244;6.774;2023-12-20T03:32:31;7.13;;;2.47;;
12356;SDS011;6243;51.244;6.774;2023-12-20T03:34:56;10.47;;;2.93;;
12356;SDS011;6243;51.244;6.774;2023-12-20T03:37:22;9.20;;;2.80;;
12356;SDS011;6243;51.244;6.774;2023-12-20T03:39:48;8.13;;;3.40;;
12356;SDS011;6243;51.244;6.774;2023-12-20T03:42:13;9.97;;;2.97;;
12356;SDS011;6243;51.244;6.774;2023-12-20T03:44:39;10.50;;;2.97;;
12356;SDS011;6243;51.244;6.774;2023-12-20T03:47:06;12.00;;;3.90;;
12356;SDS011;6243;51.244;6.774;2023-12-20T03:49:31;11.27;;;3.37;;
12356;SDS011;6243;51.244;6.774;2023-12-20T03:51:57;7.20;;;2.70;;
12356;SDS011;6243;51.244;6.774;2023-12-20T03:54:22;6.80;;;3.10;;
12356;SDS011;6243;51.244;6.774;2023-12-20T03:56:48;11.67;;;3.30;;
12356;SDS011;6243;51.244;6.774;2023-12-20T03:59:14;7.93;;;3.03;;
12356;SDS011;6243;51.244;6.774;2023-12-20T04:01:42;8.73;;;2.70;;
12356;SDS011;6243;51.244;6.774;2023-12-20T04:04:10;9.77;;;3.57;;
12356;SDS011;6243;51.244;6.774;2023-12-20T04:06:35;11.13;;;3.00;;
12356;SDS011;6243;51.244;6.774;2023-12-20T04:09:01;11.10;;;3.30;;
12356;SDS011;6243;51.244;6.774;2023-12-20T04:11:26;7.50;;;3.17;;
12356;SDS011;6243;51.244;6.774;2023-12-20T04:13:52;9.83;;;3.27;;
12356;SDS011;6243;51.244;6.774;2023-12-20T04:16:17;9.77;;;3.30;;
12356;SDS011;6243;51.244;6.774;2023-12-20T04:18:43;6.97;;;3.03;;
12356;SDS011;6243;51.244;6.774;2023-12-20T04:21:09;8.57;;;3.43;;
12356;SDS011;6243;51.244;6.774;2023-12-20T04:23:35;8.57;;;3.17;;
12356;SDS011;6243;51.244;6.774;2023-12-20T04:26:00;12.80;;;3.40;;
12356;SDS011;6243;51.244;6.774;2023-12-20T04:28:26;7.47;;;3.10;;
12356;SDS011;6243;51.244;6.774;2023-12-20T04:30:51;14.20;;;3.63;;
12356;SDS011;6243;51.244;6.774;2023-12-20T04:33:17;8.03;;;3.47;;
12356;SDS011;6243;51.244;6.774;2023-12-20T04:35:42;11.13;;;4.27;;
12356;SDS011;6243;51.244;6.774;2023-12-20T04:38:09;7.97;;;3.67;;
12356;SDS011;6243;51.244;6.774;2023-12-20T04:40:35;7.13;;;3.40;;
12356;SDS011;6243;51.244;6.774;2023-12-20T04:43:00;10.70;;;3.77;;
12356;SDS011;6243;51.244;6.774;2023-12-20T04:45:26;8.60;;;3.70;;
12356;SDS011;6243;51.244;6.774;2023-12-20T04:47:51;12.83;;;4.13;;
12356;SDS011;6243;51.244;6.774;2023-12-20T04:50:17;11.30;;;4.07;;
12356;SDS011;6243;51.244;6.774;2023-12-20T04:52:42;10.40;;;4.17;;
12356;SDS011;6243;51.244;6.774;2023-12-20T04:55:09;9.67;;;4.50;;
12356;SDS011;6243;51.244;6.774;2023-12-20T04:57:35;9.77;;;4.27;;
12356;SDS011;6243;51.244;6.774;2023-12-20T05:00:00;11.13;;;3.97;;
12356;SDS011;6243;51.244;6.774;2023-12-20T05:02:26;8.23;;;4.10;;
12356;SDS011;6243;51.244;6.774;2023-12-20T05:04:51;13.20;;;4.33;;
12356;SDS011;6243;51.244;6.774;2023-12-20T05:07:17;10.53;;;4.73;;
12356;SDS011;6243;51.244;6.774;2023-12-20T05:09:42;14.80;;;4.20;;
12356;SDS011;6243;51.244;6.774;2023-12-20T05:12:09;11.53;;;4.30;;
12356;SDS011;6243;51.244;6.774;2023-12-20T05:14:35;13.90;;;4.27;;
12356;SDS011;6243;51.244;6.774;2023-12-20T05:17:00;9.00;;;3.90;;
12356;SDS011;6243;51.244;6.774;2023-12-20T05:19:26;5.63;;;3.53;;
12356;SDS011;6243;51.244;6.774;2023-12-20T05:21:51;9.00;;;3.90;;
12356;SDS011;6243;51.244;6.774;2023-12-20T05:24:17;8.40;;;4.03;;
12356;SDS011;6243;51.244;6.774;2023-12-20T05:26:42;10.10;;;3.97;;
12356;SDS011;6243;51.244;6.774;2023-12-20T05:29:09;15.40;;;4.30;;
12356;SDS011;6243;51.244;6.774;2023-12-20T05:31:35;11.33;;;4.87;;
12356;SDS011;6243;51.244;6.774;2023-12-20T05:34:00;11.47;;;3.80;;
12356;SDS011;6243;51.244;6.774;2023-12-20T05:36:26;8.37;;;4.00;;
12356;SDS011;6243;51.244;6.774;2023-12-20T05:38:51;10.80;;;4.33;;
12356;SDS011;6243;51.244;6.774;2023-12-20T05:41:17;11.67;;;4.70;;
12356;SDS011;6243;51.244;6.774;2023-12-20T05:43:42;13.30;;;4.90;;
12356;SDS011;6243;51.244;6.774;2023-12-20T05:46:11;13.23;;;4.30;;
12356;SDS011;6243;51.244;6.774;2023-12-20T05:48:36;9.23;;;4.60;;
12356;SDS011;6243;51.244;6.774;2023-12-20T05:51:02;10.53;;;4.03;;
12356;SDS011;6243;51.244;6.774;2023-12-20T05:53:27;10.43;;;4.17;;
12356;SDS011;6243;51.244;6.774;2023-12-20T05:55:53;13.27;;;3.60;;
12356;SDS011;6243;51.244;6.774;2023-12-20T05:58:18;8.17;;;3.97;;
12356;SDS011;6243;51.244;6.774;2023-12-20T06:00:44;10.83;;;3.80;;
12356;SDS011;6243;51.244;6.774;2023-12-20T06:03:11;10.83;;;3.97;;
12356;SDS011;6243;51.244;6.774;2023-12-20T06:05:36;14.93;;;4.73;;
12356;SDS011;6243;51.244;6.774;2023-12-20T06:08:02;7.40;;;4.00;;
12356;SDS011;6243;51.244;6.774;2023-12-20T06:10:27;9.50;;;4.00;;
12356;SDS011;6243;51.244;6.774;2023-12-20T06:12:53;8.67;;;4.30;;
12356;SDS011;6243;51.244;6.774;2023-12-20T06:15:19;11.77;;;4.43;;
12356;SDS011;6243;51.244;6.774;2023-12-20T06:17:44;12.83;;;4.50;;
12356;SDS011;6243;51.244;6.774;2023-12-20T06:20:12;9.47;;;4.80;;
12356;SDS011;6243;51.244;6.774;2023-12-20T06:22:37;9.80;;;4.17;;
12356;SDS011;6243;51.244;6.774;2023-12-20T06:25:03;12.23;;;4.53;;
12356;SDS011;6243;51.244;6.774;2023-12-20T06:27:29;12.57;;;4.40;;
12356;SDS011;6243;51.244;6.774;2023-12-20T06:29:55;12.97;;;4.93;;
12356;SDS011;6243;51.244;6.774;2023-12-20T06:32:20;8.17;;;4.30;;
12356;SDS011;6243;51.244;6.774;2023-12-20T06:34:46;13.23;;;4.30;;
12356;SDS011;6243;51.244;6.774;2023-12-20T06:37:13;10.90;;;4.23;;
12356;SDS011;6243;51.244;6.774;2023-12-20T06:39:38;12.23;;;5.00;;
12356;SDS011;6243;51.244;6.774;2023-12-20T06:42:04;11.37;;;4.67;;
12356;SDS011;6243;51.244;6.774;2023-12-20T06:44:29;12.73;;;4.90;;
12356;SDS011;6243;51.244;6.774;2023-12-20T06:46:55;12.57;;;4.60;;
12356;SDS011;6243;51.244;6.774;2023-12-20T06:49:20;15.20;;;5.43;;
12356;SDS011;6243;51.244;6.774;2023-12-20T06:51:46;10.87;;;4.63;;
12356;SDS011;6243;51.244;6.774;2023-12-20T06:54:12;16.90;;;5.13;;
12356;SDS011;6243;51.244;6.774;2023-12-20T06:56:38;14.60;;;4.30;;
12356;SDS011;6243;51.244;6.774;2023-12-20T06:59:03;10.17;;;5.13;;
12356;SDS011;6243;51.244;6.774;2023-12-20T07:01:29;12.10;;;5.33;;
12356;SDS011;6243;51.244;6.774;2023-12-20T07:03:54;12.57;;;5.33;;
12356;SDS011;6243;51.244;6.774;2023-12-20T07:06:20;12.33;;;4.57;;
12356;SDS011;6243;51.244;6.774;2023-12-20T07:08:45;11.47;;;4.33;;
12356;SDS011;6243;51.244;6.774;2023-12-20T07:11:12;9.27;;;4.80;;
12356;SDS011;6243;51.244;6.774;2023-12-20T07:13:38;10.97;;;4.73;;
12356;SDS011;6243;51.244;6.774;2023-12-20T07:16:03;17.27;;;5.07;;
12356;SDS011;6243;51.244;6.774;2023-12-20T07:18:29;12.97;;;4.57;;
12356;SDS011;6243;51.244;6.774;2023-12-20T07:20:55;10.43;;;4.23;;
12356;SDS011;6243;51.244;6.774;2023-12-20T07:23:20;12.33;;;4.20;;
12356;SDS011;6243;51.244;6.774;2023-12-20T07:25:46;13.97;;;4.67;;
12356;SDS011;6243;51.244;6.774;2023-12-20T07:28:13;13.77;;;4.90;;
12356;SDS011;6243;51.244;6.774;2023-12-20T07:30:38;15.03;;;4.73;;
12356;SDS011;6243;51.244;6.774;2023-12-20T07:33:04;9.40;;;4.27;;
12356;SDS011;6243;51.244;6.774;2023-12-20T07:35:29;9.97;;;4.83;;
12356;SDS011;6243;51.244;6.774;2023-12-20T07:37:55;12.23;;;4.43;;
12356;SDS011;6243;51.244;6.774;2023-12-20T07:40:21;13.30;;;5.33;;
12356;SDS011;6243;51.244;6.774;2023-12-20T07:42:46;10.67;;;4.00;;
12356;SDS011;6243;51.244;6.774;2023-12-20T07:45:13;13.63;;;4.50;;
12356;SDS011;6243;51.244;6.774;2023-12-20T07:47:39;13.23;;;4.70;;
12356;SDS011;6243;51.244;6.774;2023-12-20T07:50:05;13.03;;;4.70;;
12356;SDS011;6243;51.244;6.774;2023-12-20T07:52:31;17.03;;;4.67;;
12356;SDS011;6243;51.244;6.774;2023-12-20T07:54:56;14.60;;;4.90;;
12356;SDS011;6243;51.244;6.774;2023-12-20T07:57:22;15.93;;;5.17;;
12356;SDS011;6243;51.244;6.774;2023-12-20T07:59:48;10.07;;;4.03;;
12356;SDS011;6243;51.244;6.774;2023-12-20T08:02:15;12.07;;;5.00;;
12356;SDS011;6243;51.244;6.774;2023-12-20T08:04:41;15.20;;;5.87;;
12356;SDS011;6243;51.244;6.774;2023-12-20T08:07:07;11.00;;;4.17;;
12356;SDS011;6243;51.244;6.774;2023-12-20T08:09:32;15.47;;;4.97;;
12356;SDS011;6243;51.244;6.774;2023-12-20T08:11:58;15.47;;;5.10;;
12356;SDS011;6243;51.244;6.774;2023-12-20T08:14:23;13.23;;;4.33;;
12356;SDS011;6243;51.244;6.774;2023-12-20T08:16:49;11.27;;;5.00;;
12356;SDS011;6243;51.244;6.774;2023-12-20T08:19:16;13.47;;;4.87;;
12356;SDS011;6243;51.244;6.774;2023-12-20T08:21:41;10.03;;;4.00;;
12356;SDS011;6243;51.244;6.774;2023-12-20T08:24:07;12.80;;;5.10;;
12356;SDS011;6243;51.244;6.774;2023-12-20T08:26:33;12.27;;;4.20;;
12356;SDS011;6243;51.244;6.774;2023-12-20T08:28:58;12.83;;;4.57;;
12356;SDS011;6243;51.244;6.774;2023-12-20T08:31:24;11.63;;;4.40;;
12356;SDS011;6243;51.244;6.774;2023-12-20T08:33:49;13.33;;;4.20;;
12356;SDS011;6243;51.244;6.774;2023-12-20T08:36:16;14.33;;;4.80;;
12356;SDS011;6243;51.244;6.774;2023-12-20T08:38:42;16.30;;;4.60;;
12356;SDS011;6243;51.244;6.774;2023-12-20T08:41:08;14.97;;;4.30;;
12356;SDS011;6243;51.244;6.774;2023-12-20T08:43:34;9.37;;;4.17;;
12356;SDS011;6243;51.244;6.774;2023-12-20T08:45:59;11.77;;;4.47;;
12356;SDS011;6243;51.244;6.774;2023-12-20T08:48:25;15.10;;;4.13;;
12356;SDS011;6243;51.244;6.774;2023-12-20T08:50:50;10.93;;;4.50;;
12356;SDS011;6243;51.244;6.774;2023-12-20T08:53:17;10.07;;;3.97;;
12356;SDS011;6243;51.244;6.774;2023-12-20T08:55:43;9.10;;;3.80;;
12356;SDS011;6243;51.244;6.774;2023-12-20T08:58:09;11.87;;;3.73;;
12356;SDS011;6243;51.244;6.774;2023-12-20T09:00:35;16.40;;;4.63;;
12356;SDS011;6243;51.244;6.774;2023-12-20T09:03:00;10.13;;;3.77;;
12356;SDS011;6243;51.244;6.774;2023-12-20T09:05:26;10.37;;;3.57;;
12356;SDS011;6243;51.244;6.774;2023-12-20T09:07:52;9.57;;;3.27;;
12356;SDS011;6243;51.244;6.774;2023-12-20T09:10:19;12.27;;;3.77;;
12356;SDS011;6243;51.244;6.774;2023-12-20T09:12:44;11.93;;;3.97;;
12356;SDS011;6243;51.244;6.774;2023-12-20T09:15:10;10.27;;;4.87;;
12356;SDS011;6243;51.244;6.774;2023-12-20T09:17:35;10.00;;;3.20;;
12356;SDS011;6243;51.244;6.774;2023-12-20T09:20:01;12.73;;;3.03;;
12356;SDS011;6243;51.244;6.774;2023-12-20T09:22:26;10.40;;;3.20;;
12356;SDS011;6243;51.244;6.774;2023-12-20T09:24:52;11.93;;;3.10;;
12356;SDS011;6243;51.244;6.774;2023-12-20T09:27:19;10.07;;;3.43;;
12356;SDS011;6243;51.244;6.774;2023-12-20T09:29:44;10.43;;;3.50;;
12356;SDS011;6243;51.244;6.774;2023-12-20T09:32:10;12.00;;;3.70;;
12356;SDS011;6243;51.244;6.774;2023-12-20T09:34:35;13.93;;;3.43;;
12356;SDS011;6243;51.244;6.774;2023-12-20T09:37:01;13.00;;;3.93;;
12356;SDS011;6243;51.244;6.774;2023-12-20T09:39:26;10.17;;;3.33;;
12356;SDS011;6243;51.244;6.774;2023-12-20T09:41:55;13.00;;;3.90;;
12356;SDS011;6243;51.244;6.774;2023-12-20T09:44:27;9.80;;;3.30;;
12356;SDS011;6243;51.244;6.774;2023-12-20T09:46:53;10.37;;;3.23;;
12356;SDS011;6243;51.244;6.774;2023-12-20T09:49:20;10.67;;;3.27;;
12356;SDS011;6243;51.244;6.774;2023-12-20T09:51:46;8.47;;;3.37;;
12356;SDS011;6243;51.244;6.774;2023-12-20T09:54:12;9.20;;;3.23;;
12356;SDS011;6243;51.244;6.774;2023-12-20T09:56:39;13.57;;;3.83;;
12356;SDS011;6243;51.244;6.774;2023-12-20T09:59:04;11.50;;;3.40;;
12356;SDS011;6243;51.244;6.774;2023-12-20T10:01:31;11.50;;;3.40;;
12356;SDS011;6243;51.244;6.774;2023-12-20T10:03:59;12.57;;;3.30;;
12356;SDS011;6243;51.244;6.774;2023-12-20T10:06:25;6.97;;;3.20;;
12356;SDS011;6243;51.244;6.774;2023-12-20T10:08:51;15.57;;;3.77;;
12356;SDS011;6243;51.244;6.774;2023-12-20T10:11:17;11.93;;;3.57;;
12356;SDS011;6243;51.244;6.774;2023-12-20T10:13:43;11.07;;;3.30;;
12356;SDS011;6243;51.244;6.774;2023-12-20T10:16:09;9.83;;;3.30;;
12356;SDS011;6243;51.244;6.774;2023-12-20T10:18:36;11.07;;;3.43;;
12356;SDS011;6243;51.244;6.774;2023-12-20T10:21:01;10.87;;;4.33;;
12356;SDS011;6243;51.244;6.774;2023-12-20T10:23:27;11.93;;;3.53;;
12356;SDS011;6243;51.244;6.774;2023-12-20T10:25:56;10.00;;;4.13;;
12356;SDS011;6243;51.244;6.774;2023-12-20T10:28:21;14.03;;;3.53;;
12356;SDS011;6243;51.244;6.774;2023-12-20T10:30:47;9.63;;;3.53;;
12356;SDS011;6243;51.244;6.774;2023-12-20T10:33:12;14.30;;;3.67;;
12356;SDS011;6243;51.244;6.774;2023-12-20T10:35:40;9.77;;;3.30;;
12356;SDS011;6243;51.244;6.774;2023-12-20T10:38:05;11.83;;;3.17;;
12356;SDS011;6243;51.244;6.774;2023-12-20T10:40:31;9.10;;;3.20;;
12356;SDS011;6243;51.244;6.774;2023-12-20T10:42:59;11.37;;;3.43;;
12356;SDS011;6243;51.244;6.774;2023-12-20T10:45:27;8.03;;;2.73;;
12356;SDS011;6243;51.244;6.774;2023-12-20T10:47:52;9.93;;;3.40;;
12356;SDS011;6243;51.244;6.774;2023-12-20T10:50:18;9.07;;;3.17;;
12356;SDS011;6243;51.244;6.774;2023-12-20T10:52:46;8.07;;;3.37;;
12356;SDS011;6243;51.244;6.774;2023-12-20T10:55:12;9.50;;;3.20;;
12356;SDS011;6243;51.244;6.774;2023-12-20T10:57:38;12.23;;;4.37;;
12356;SDS011;6243;51.244;6.774;2023-12-20T11:00:05;7.13;;;3.13;;
12356;SDS011;6243;51.244;6.774;2023-12-20T11:02:39;9.33;;;3.33;;
12356;SDS011;6243;51.244;6.774;2023-12-20T11:05:06;8.63;;;3.00;;
12356;SDS011;6243;51.244;6.774;2023-12-20T11:07:39;8.63;;;3.40;;
12356;SDS011;6243;51.244;6.774;2023-12-20T11:10:13;13.30;;;3.40;;
12356;SDS011;6243;51.244;6.774;2023-12-20T11:12:45;12.87;;;3.57;;
12356;SDS011;6243;51.244;6.774;2023-12-20T11:15:17;11.87;;;3.70;;
12356;SDS011;6243;51.244;6.774;2023-12-20T11:17:44;11.33;;;3.47;;
12356;SDS011;6243;51.244;6.774;2023-12-20T11:20:10;8.13;;;3.30;;
12356;SDS011;6243;51.244;6.774;2023-12-20T11:22:36;11.63;;;3.57;;
12356;SDS011;6243;51.244;6.774;2023-12-20T11:25:03;9.97;;;3.10;;
12356;SDS011;6243;51.244;6.774;2023-12-20T11:27:31;8.40;;;3.27;;
12356;SDS011;6243;51.244;6.774;2023-12-20T11:29:58;8.13;;;3.03;;
12356;SDS011;6243;51.244;6.774;2023-12-20T11:32:29;7.27;;;3.47;;
12356;SDS011;6243;51.244;6.774;2023-12-20T11:34:55;6.83;;;2.47;;
12356;SDS011;6243;51.244;6.774;2023-12-20T11:37:21;6.30;;;2.80;;
12356;SDS011;6243;51.244;6.774;2023-12-20T11:39:53;8.93;;;3.00;;
12356;SDS011;6243;51.244;6.774;2023-12-20T11:42:19;15.23;;;3.90;;
12356;SDS011;6243;51.244;6.774;2023-12-20T11:44:46;10.13;;;3.30;;
12356;SDS011;6243;51.244;6.774;2023-12-20T11:47:12;11.00;;;3.33;;
12356;SDS011;6243;51.244;6.774;2023-12-20T11:49:38;10.23;;;3.37;;
12356;SDS011;6243;51.244;6.774;2023-12-20T11:52:04;9.87;;;3.17;;
12356;SDS011;6243;51.244;6.774;2023-12-20T11:54:30;8.17;;;2.87;;
12356;SDS011;6243;51.244;6.774;2023-12-20T11:56:55;8.93;;;3.40;;
12356;SDS011;6243;51.244;6.774;2023-12-20T11:59:21;7.63;;;3.00;;
12356;SDS011;6243;51.244;6.774;2023-12-20T12:01:51;11.17;;;3.33;;
12356;SDS011;6243;51.244;6.774;2023-12-20T12:04:16;8.27;;;3.10;;
12356;SDS011;6243;51.244;6.774;2023-12-20T12:06:42;10.50;;;3.00;;
12356;SDS011;6243;51.244;6.774;2023-12-20T12:09:07;7.93;;;3.17;;
12356;SDS011;6243;51.244;6.774;2023-12-20T12:11:33;9.47;;;3.40;;
12356;SDS011;6243;51.244;6.774;2023-12-20T12:13:58;8.60;;;3.17;;
12356;SDS011;6243;51.244;6.774;2023-12-20T12:16:24;9.00;;;3.33;;
12356;SDS011;6243;51.244;6.774;2023-12-20T12:18:56;10.60;;;3.20;;
12356;SDS011;6243;51.244;6.774;2023-12-20T12:21:22;9.53;;;2.97;;
12356;SDS011;6243;51.244;6.774;2023-12-20T12:23:47;7.80;;;3.33;;
12356;SDS011;6243;51.244;6.774;2023-12-20T12:26:13;10.23;;;4.10;;
12356;SDS011;6243;51.244;6.774;2023-12-20T12:28:40;11.07;;;3.43;;
12356;SDS011;6243;51.244;6.774;2023-12-20T12:31:05;9.73;;;3.70;;
12356;SDS011;6243;51.244;6.774;2023-12-20T12:33:31;11.87;;;3.80;;
12356;SDS011;6243;51.244;6.774;2023-12-20T12:35:58;8.77;;;3.30;;
12356;SDS011;6243;51.244;6.774;2023-12-20T12:38:23;7.80;;;3.13;;
12356;SDS011;6243;51.244;6.774;2023-12-20T12:40:49;8.37;;;3.70;;
12356;SDS011;6243;51.244;6.774;2023-12-20T12:43:15;10.97;;;3.50;;
12356;SDS011;6243;51.244;6.774;2023-12-20T12:45:41;11.53;;;4.03;;
12356;SDS011;6243;51.244;6.774;2023-12-20T12:48:06;8.13;;;3.47;;
12356;SDS011;6243;51.244;6.774;2023-12-20T12:50:32;10.40;;;3.83;;
12356;SDS011;6243;51.244;6.774;2023-12-20T12:52:59;8.10;;;3.13;;
12356;SDS011;6243;51.244;6.774;2023-12-20T12:55:24;9.97;;;3.70;;
12356;SDS011;6243;51.244;6.774;2023-12-20T12:57:50;10.67;;;4.23;;
12356;SDS011;6243;51.244;6.774;2023-12-20T13:00:15;13.93;;;4.50;;
12356;SDS011;6243;51.244;6.774;2023-12-20T13:02:41;8.13;;;3.50;;
12356;SDS011;6243;51.244;6.774;2023-12-20T13:05:07;10.50;;;3.90;;
12356;SDS011;6243;51.244;6.774;2023-12-20T13:07:33;8.67;;;4.00;;
12356;SDS011;6243;51.244;6.774;2023-12-20T13:10:00;11.93;;;4.43;;
12356;SDS011;6243;51.244;6.774;2023-12-20T13:12:25;12.63;;;3.93;;
12356;SDS011;6243;51.244;6.774;2023-12-20T13:14:51;7.13;;;3.67;;
12356;SDS011;6243;51.244;6.774;2023-12-20T13:17:16;5.90;;;3.33;;
12356;SDS011;6243;51.244;6.774;2023-12-20T13:19:42;6.83;;;3.87;;
12356;SDS011;6243;51.244;6.774;2023-12-20T13:22:07;9.53;;;4.07;;
12356;SDS011;6243;51.244;6.774;2023-12-20T13:24:34;8.90;;;3.70;;
12356;SDS011;6243;51.244;6.774;2023-12-20T13:27:07;8.50;;;4.63;;
12356;SDS011;6243;51.244;6.774;2023-12-20T13:29:33;9.67;;;4.73;;
12356;SDS011;6243;51.244;6.774;2023-12-20T13:31:58;8.03;;;4.50;;
12356;SDS011;6243;51.244;6.774;2023-12-20T13:34:24;12.03;;;4.37;;
12356;SDS011;6243;51.244;6.774;2023-12-20T13:36:50;12.60;;;5.30;;
12356;SDS011;6243;51.244;6.774;2023-12-20T13:39:15;8.57;;;4.30;;
12356;SDS011;6243;51.244;6.774;2023-12-20T13:41:41;8.20;;;4.07;;
12356;SDS011;6243;51.244;6.774;2023-12-20T13:44:08;10.00;;;4.20;;
12356;SDS011;6243;51.244;6.774;2023-12-20T13:46:33;12.77;;;4.70;;
12356;SDS011;6243;51.244;6.774;2023-12-20T13:48:59;9.53;;;4.40;;
12356;SDS011;6243;51.244;6.774;2023-12-20T13:51:24;11.33;;;4.27;;
12356;SDS011;6243;51.244;6.774;2023-12-20T13:53:50;8.53;;;4.23;;
12356;SDS011;6243;51.244;6.774;2023-12-20T13:56:15;8.33;;;4.20;;
12356;SDS011;6243;51.244;6.774;2023-12-20T13:58:41;8.90;;;4.13;;
12356;SDS011;6243;51.244;6.774;2023-12-20T14:01:08;9.73;;;3.90;;
12356;SDS011;6243;51.244;6.774;2023-12-20T14:03:33;9.60;;;4.40;;
12356;SDS011;6243;51.244;6.774;2023-12-20T14:05:59;9.50;;;4.03;;
12356;SDS011;6243;51.244;6.774;2023-12-20T14:08:25;11.13;;;4.80;;
12356;SDS011;6243;51.244;6.774;2023-12-20T14:10:50;8.27;;;4.03;;
12356;SDS011;6243;51.244;6.774;2023-12-20T14:13:16;6.57;;;4.30;;
12356;SDS011;6243;51.244;6.774;2023-12-20T14:15:41;8.40;;;4.00;;
12356;SDS011;6243;51.244;6.774;2023-12-20T14:18:08;8.97;;;4.00;;
12356;SDS011;6243;51.244;6.774;2023-12-20T14:20:34;9.57;;;4.20;;
12356;SDS011;6243;51.244;6.774;2023-12-20T14:23:00;9.07;;;4.17;;
12356;SDS011;6243;51.244;6.774;2023-12-20T14:25:25;7.53;;;3.40;;
12356;SDS011;6243;51.244;6.774;2023-12-20T14:27:51;8.83;;;3.70;;
12356;SDS011;6243;51.244;6.774;2023-12-20T14:30:16;8.93;;;4.30;;
12356;SDS011;6243;51.244;6.774;2023-12-20T14:32:42;8.87;;;3.90;;
12356;SDS011;6243;51.244;6.774;2023-12-20T14:35:17;8.27;;;4.20;;
12356;SDS011;6243;51.244;6.774;2023-12-20T14:37:42;10.57;;;4.40;;
12356;SDS011;6243;51.244;6.774;2023-12-20T14:40:08;7.00;;;3.20;;
12356;SDS011;6243;51.244;6.774;2023-12-20T14:42:34;8.60;;;3.83;;
12356;SDS011;6243;51.244;6.774;2023-12-20T14:44:59;11.03;;;4.13;;